sensor_id;sensor_type;location;lat;lon;timestamp;temperature;humidity
5940;DHT22;2995;-31.998;115.906;2023-12-28T00:02:05;24.00;99.90
5940;DHT22;2995;-31.998;115.906;2023-12-28T00:04:37;23.80;99.90
5940;DHT22;2995;-31.998;115.906;2023-12-28T00:07:08;23.50;99.90
5940;DHT22;2995;-31.998;115.906;2023-12-28T00:09:40;23.30;99.90
5940;DHT22;2995;-31.998;115.906;2023-12-28T00:12:11;23.50;99.90
5940;DHT22;2995;-31.998;115.906;2023-12-28T00:14:44;23.60;99.90
5940;DHT22;2995;-31.998;115.906;2023-12-28T00:17:16;23.60;99.90
5940;DHT22;2995;-31.998;115.906;2023-12-28T00:19:47;23.60;99.90
5940;DHT22;2995;-31.998;115.906;2023-12-28T00:22:19;23.60;99.90
5940;DHT22;2995;-31.998;115.906;2023-12-28T00:24:50;23.70;99.90
5940;DHT22;2995;-31.998;115.906;2023-12-28T00:27:21;23.50;99.90
5940;DHT22;2995;-31.998;115.906;2023-12-28T00:29:54;23.50;99.90
5940;DHT22;2995;-31.998;115.906;2023-12-28T00:32:26;23.40;99.90
5940;DHT22;2995;-31.998;115.906;2023-12-28T00:34:57;23.70;99.90
5940;DHT22;2995;-31.998;115.906;2023-12-28T00:37:28;23.90;99.90
5940;DHT22;2995;-31.998;115.906;2023-12-28T00:39:59;23.80;99.90
5940;DHT22;2995;-31.998;115.906;2023-12-28T00:42:31;23.80;99.90
5940;DHT22;2995;-31.998;115.906;2023-12-28T00:45:04;24.10;99.90
5940;DHT22;2995;-31.998;115.906;2023-12-28T00:47:36;24.50;99.90
5940;DHT22;2995;-31.998;115.906;2023-12-28T00:50:07;24.60;99.90
5940;DHT22;2995;-31.998;115.906;2023-12-28T00:52:39;24.80;99.90
5940;DHT22;2995;-31.998;115.906;2023-12-28T00:55:11;24.90;99.90
5940;DHT22;2995;-31.998;115.906;2023-12-28T00:57:42;24.90;99.90
5940;DHT22;2995;-31.998;115.906;2023-12-28T01:00:17;24.80;99.90
5940;DHT22;2995;-31.998;115.906;2023-12-28T01:02:49;24.80;99.90
5940;DHT22;2995;-31.998;115.906;2023-12-28T01:05:20;24.80;99.90
5940;DHT22;2995;-31.998;115.906;2023-12-28T01:07:54;24.90;99.90
5940;DHT22;2995;-31.998;115.906;2023-12-28T01:10:25;24.60;99.90
5940;DHT22;2995;-31.998;115.906;2023-12-28T01:12:56;24.50;99.90
5940;DHT22;2995;-31.998;115.906;2023-12-28T01:15:30;24.50;99.90
5940;DHT22;2995;-31.998;115.906;2023-12-28T01:18:01;24.50;99.90
5940;DHT22;2995;-31.998;115.906;2023-12-28T01:20:32;24.50;99.90
5940;DHT22;2995;-31.998;115.906;2023-12-28T01:23:04;24.60;99.90
5940;DHT22;2995;-31.998;115.906;2023-12-28T01:25:35;24.70;99.90
5940;DHT22;2995;-31.998;115.906;2023-12-28T01:28:06;25.20;99.90
5940;DHT22;2995;-31.998;115.906;2023-12-28T01:30:39;25.40;99.90
5940;DHT22;2995;-31.998;115.906;2023-12-28T01:33:12;25.50;99.90
5940;DHT22;2995;-31.998;115.906;2023-12-28T01:35:43;25.60;99.90
5940;DHT22;2995;-31.998;115.906;2023-12-28T01:38:14;25.70;99.90
5940;DHT22;2995;-31.998;115.906;2023-12-28T01:40:46;25.80;99.90
5940;DHT22;2995;-31.998;115.906;2023-12-28T01:43:17;25.90;99.90
5940;DHT22;2995;-31.998;115.906;2023-12-28T01:45:50;25.80;99.90
5940;DHT22;2995;-31.998;115.906;2023-12-28T01:48:21;25.90;99.90
5940;DHT22;2995;-31.998;115.906;2023-12-28T01:50:53;25.70;99.90
5940;DHT22;2995;-31.998;115.906;2023-12-28T01:53:25;25.50;99.90
5940;DHT22;2995;-31.998;115.906;2023-12-28T01:55:56;25.40;99.90
5940;DHT22;2995;-31.998;115.906;2023-12-28T01:58:30;25.30;99.90
5940;DHT22;2995;-31.998;115.906;2023-12-28T02:01:06;25.50;99.90
5940;DHT22;2995;-31.998;115.906;2023-12-28T02:03:37;25.70;99.90
5940;DHT22;2995;-31.998;115.906;2023-12-28T02:06:08;25.90;99.90
5940;DHT22;2995;-31.998;115.906;2023-12-28T02:08:40;26.40;99.90
5940;DHT22;2995;-31.998;115.906;2023-12-28T02:11:11;26.90;99.90
5940;DHT22;2995;-31.998;115.906;2023-12-28T02:13:43;26.80;99.90
5940;DHT22;2995;-31.998;115.906;2023-12-28T02:16:20;27.00;99.90
5940;DHT22;2995;-31.998;115.906;2023-12-28T02:18:53;26.80;99.90
5940;DHT22;2995;-31.998;115.906;2023-12-28T02:21:26;26.80;99.90
5940;DHT22;2995;-31.998;115.906;2023-12-28T02:23:58;26.70;99.90
5940;DHT22;2995;-31.998;115.906;2023-12-28T02:26:31;26.70;99.90
5940;DHT22;2995;-31.998;115.906;2023-12-28T02:29:02;26.70;99.90
5940;DHT22;2995;-31.998;115.906;2023-12-28T02:31:37;26.80;99.90
5940;DHT22;2995;-31.998;115.906;2023-12-28T02:34:15;26.80;99.90
5940;DHT22;2995;-31.998;115.906;2023-12-28T02:36:47;27.00;99.90
5940;DHT22;2995;-31.998;115.906;2023-12-28T02:39:19;27.10;99.90
5940;DHT22;2995;-31.998;115.906;2023-12-28T02:41:53;27.20;99.90
5940;DHT22;2995;-31.998;115.906;2023-12-28T02:44:25;27.10;99.90
5940;DHT22;2995;-31.998;115.906;2023-12-28T02:46:56;27.00;99.90
5940;DHT22;2995;-31.998;115.906;2023-12-28T02:49:32;26.90;99.90
5940;DHT22;2995;-31.998;115.906;2023-12-28T02:52:04;27.20;99.90
5940;DHT22;2995;-31.998;115.906;2023-12-28T02:54:35;27.00;99.90
5940;DHT22;2995;-31.998;115.906;2023-12-28T02:57:08;27.30;99.90
5940;DHT22;2995;-31.998;115.906;2023-12-28T02:59:40;27.30;99.90
5940;DHT22;2995;-31.998;115.906;2023-12-28T03:02:11;27.40;99.90
5940;DHT22;2995;-31.998;115.906;2023-12-28T03:04:42;27.40;99.90
5940;DHT22;2995;-31.998;115.906;2023-12-28T03:07:13;27.30;99.90
5940;DHT22;2995;-31.998;115.906;2023-12-28T03:09:45;27.60;99.90
5940;DHT22;2995;-31.998;115.906;2023-12-28T03:12:18;27.60;99.90
5940;DHT22;2995;-31.998;115.906;2023-12-28T03:14:49;27.20;99.90
5940;DHT22;2995;-31.998;115.906;2023-12-28T03:17:20;27.40;99.90
5940;DHT22;2995;-31.998;115.906;2023-12-28T03:19:52;27.70;99.90
5940;DHT22;2995;-31.998;115.906;2023-12-28T03:22:23;27.60;99.90
5940;DHT22;2995;-31.998;115.906;2023-12-28T03:24:54;27.90;99.90
5940;DHT22;2995;-31.998;115.906;2023-12-28T03:27:27;28.00;99.90
5940;DHT22;2995;-31.998;115.906;2023-12-28T03:29:59;28.10;99.90
5940;DHT22;2995;-31.998;115.906;2023-12-28T03:32:30;28.20;99.90
5940;DHT22;2995;-31.998;115.906;2023-12-28T03:35:02;28.20;99.90
5940;DHT22;2995;-31.998;115.906;2023-12-28T03:37:34;28.30;99.90
5940;DHT22;2995;-31.998;115.906;2023-12-28T03:40:06;28.20;99.90
5940;DHT22;2995;-31.998;115.906;2023-12-28T03:42:41;28.30;99.90
5940;DHT22;2995;-31.998;115.906;2023-12-28T03:45:12;28.20;99.90
5940;DHT22;2995;-31.998;115.906;2023-12-28T03:47:43;28.30;99.90
5940;DHT22;2995;-31.998;115.906;2023-12-28T03:50:15;28.40;99.90
5940;DHT22;2995;-31.998;115.906;2023-12-28T03:52:46;28.50;99.90
5940;DHT22;2995;-31.998;115.906;2023-12-28T03:55:17;28.60;99.90
5940;DHT22;2995;-31.998;115.906;2023-12-28T03:57:50;28.30;99.90
5940;DHT22;2995;-31.998;115.906;2023-12-28T04:00:21;28.10;99.90
5940;DHT22;2995;-31.998;115.906;2023-12-28T04:02:53;28.00;99.90
5940;DHT22;2995;-31.998;115.906;2023-12-28T04:05:26;27.90;99.90
5940;DHT22;2995;-31.998;115.906;2023-12-28T04:07:56;28.20;99.90
5940;DHT22;2995;-31.998;115.906;2023-12-28T04:10:34;28.30;99.90
5940;DHT22;2995;-31.998;115.906;2023-12-28T04:13:07;28.10;99.90
5940;DHT22;2995;-31.998;115.906;2023-12-28T04:15:41;28.20;99.90
5940;DHT22;2995;-31.998;115.906;2023-12-28T04:18:13;28.30;99.90
5940;DHT22;2995;-31.998;115.906;2023-12-28T04:20:44;28.30;99.90
5940;DHT22;2995;-31.998;115.906;2023-12-28T04:23:15;28.80;99.90
5940;DHT22;2995;-31.998;115.906;2023-12-28T04:25:46;28.90;99.90
5940;DHT22;2995;-31.998;115.906;2023-12-28T04:28:20;28.80;99.90
5940;DHT22;2995;-31.998;115.906;2023-12-28T04:30:51;28.70;99.90
5940;DHT22;2995;-31.998;115.906;2023-12-28T04:33:22;28.70;99.90
5940;DHT22;2995;-31.998;115.906;2023-12-28T04:35:53;28.60;99.90
5940;DHT22;2995;-31.998;115.906;2023-12-28T04:38:25;28.60;99.90
5940;DHT22;2995;-31.998;115.906;2023-12-28T04:40:57;28.70;99.90
5940;DHT22;2995;-31.998;115.906;2023-12-28T04:43:30;28.90;99.90
5940;DHT22;2995;-31.998;115.906;2023-12-28T04:46:04;28.80;99.90
5940;DHT22;2995;-31.998;115.906;2023-12-28T04:48:36;28.60;99.90
5940;DHT22;2995;-31.998;115.906;2023-12-28T04:51:07;28.40;99.90
5940;DHT22;2995;-31.998;115.906;2023-12-28T04:53:40;28.40;99.90
5940;DHT22;2995;-31.998;115.906;2023-12-28T04:56:11;28.60;99.90
5940;DHT22;2995;-31.998;115.906;2023-12-28T04:58:44;28.60;99.90
5940;DHT22;2995;-31.998;115.906;2023-12-28T05:01:16;28.60;99.90
5940;DHT22;2995;-31.998;115.906;2023-12-28T05:03:47;28.80;99.90
5940;DHT22;2995;-31.998;115.906;2023-12-28T05:06:18;28.80;99.90
5940;DHT22;2995;-31.998;115.906;2023-12-28T05:08:50;28.90;99.90
5940;DHT22;2995;-31.998;115.906;2023-12-28T05:11:21;28.90;99.90
5940;DHT22;2995;-31.998;115.906;2023-12-28T05:13:54;29.10;99.90
5940;DHT22;2995;-31.998;115.906;2023-12-28T05:16:25;29.00;99.90
5940;DHT22;2995;-31.998;115.906;2023-12-28T05:18:56;29.00;99.90
5940;DHT22;2995;-31.998;115.906;2023-12-28T05:21:28;29.40;99.90
5940;DHT22;2995;-31.998;115.906;2023-12-28T05:23:59;29.60;99.90
5940;DHT22;2995;-31.998;115.906;2023-12-28T05:26:31;29.90;99.90
5940;DHT22;2995;-31.998;115.906;2023-12-28T05:29:04;29.60;99.90
5940;DHT22;2995;-31.998;115.906;2023-12-28T05:31:35;29.60;99.90
5940;DHT22;2995;-31.998;115.906;2023-12-28T05:34:07;29.80;99.90
5940;DHT22;2995;-31.998;115.906;2023-12-28T05:36:38;29.80;99.90
5940;DHT22;2995;-31.998;115.906;2023-12-28T05:39:13;30.10;99.90
5940;DHT22;2995;-31.998;115.906;2023-12-28T05:41:44;30.20;99.90
5940;DHT22;2995;-31.998;115.906;2023-12-28T05:44:18;30.20;99.90
5940;DHT22;2995;-31.998;115.906;2023-12-28T05:46:49;30.20;99.90
5940;DHT22;2995;-31.998;115.906;2023-12-28T05:49:20;30.10;99.90
5940;DHT22;2995;-31.998;115.906;2023-12-28T05:51:53;30.10;99.90
5940;DHT22;2995;-31.998;115.906;2023-12-28T05:54:24;30.00;99.90
5940;DHT22;2995;-31.998;115.906;2023-12-28T05:56:55;30.10;99.90
5940;DHT22;2995;-31.998;115.906;2023-12-28T05:59:29;30.30;99.90
5940;DHT22;2995;-31.998;115.906;2023-12-28T06:02:00;30.50;99.90
5940;DHT22;2995;-31.998;115.906;2023-12-28T06:04:32;30.50;99.90
5940;DHT22;2995;-31.998;115.906;2023-12-28T06:07:04;30.60;99.90
5940;DHT22;2995;-31.998;115.906;2023-12-28T06:09:35;30.50;99.90
5940;DHT22;2995;-31.998;115.906;2023-12-28T06:12:07;30.70;99.90
5940;DHT22;2995;-31.998;115.906;2023-12-28T06:14:40;30.50;99.90
5940;DHT22;2995;-31.998;115.906;2023-12-28T06:17:11;30.80;99.90
5940;DHT22;2995;-31.998;115.906;2023-12-28T06:19:43;31.00;99.90
5940;DHT22;2995;-31.998;115.906;2023-12-28T06:22:14;31.00;99.90
5940;DHT22;2995;-31.998;115.906;2023-12-28T06:24:46;31.10;99.90
5940;DHT22;2995;-31.998;115.906;2023-12-28T06:27:17;31.10;99.90
5940;DHT22;2995;-31.998;115.906;2023-12-28T06:29:50;31.10;99.90
5940;DHT22;2995;-31.998;115.906;2023-12-28T06:32:21;31.20;99.90
5940;DHT22;2995;-31.998;115.906;2023-12-28T06:34:53;30.90;99.90
5940;DHT22;2995;-31.998;115.906;2023-12-28T06:37:24;30.60;99.90
5940;DHT22;2995;-31.998;115.906;2023-12-28T06:39:55;30.70;99.90
5940;DHT22;2995;-31.998;115.906;2023-12-28T06:42:26;30.70;99.90
5940;DHT22;2995;-31.998;115.906;2023-12-28T06:45:00;30.90;99.90
5940;DHT22;2995;-31.998;115.906;2023-12-28T06:47:31;30.90;99.90
5940;DHT22;2995;-31.998;115.906;2023-12-28T06:50:02;30.90;99.90
5940;DHT22;2995;-31.998;115.906;2023-12-28T06:52:34;30.90;99.90
5940;DHT22;2995;-31.998;115.906;2023-12-28T06:55:05;31.10;99.90
5940;DHT22;2995;-31.998;115.906;2023-12-28T06:57:36;31.40;99.90
5940;DHT22;2995;-31.998;115.906;2023-12-28T07:00:10;31.50;99.90
5940;DHT22;2995;-31.998;115.906;2023-12-28T07:02:42;31.30;99.90
5940;DHT22;2995;-31.998;115.906;2023-12-28T07:05:13;31.20;99.90
5940;DHT22;2995;-31.998;115.906;2023-12-28T07:07:44;31.20;99.90
5940;DHT22;2995;-31.998;115.906;2023-12-28T07:10:15;31.20;99.90
5940;DHT22;2995;-31.998;115.906;2023-12-28T07:12:47;31.20;99.90
5940;DHT22;2995;-31.998;115.906;2023-12-28T07:15:20;31.40;99.90
5940;DHT22;2995;-31.998;115.906;2023-12-28T07:17:51;31.10;99.90
5940;DHT22;2995;-31.998;115.906;2023-12-28T07:20:22;30.90;99.90
5940;DHT22;2995;-31.998;115.906;2023-12-28T07:22:53;30.60;99.90
5940;DHT22;2995;-31.998;115.906;2023-12-28T07:25:25;30.60;99.90
5940;DHT22;2995;-31.998;115.906;2023-12-28T07:27:56;30.90;99.90
5940;DHT22;2995;-31.998;115.906;2023-12-28T07:30:29;31.00;99.90
5940;DHT22;2995;-31.998;115.906;2023-12-28T07:33:00;31.10;99.90
5940;DHT22;2995;-31.998;115.906;2023-12-28T07:35:32;31.10;99.90
5940;DHT22;2995;-31.998;115.906;2023-12-28T07:38:03;30.90;99.90
5940;DHT22;2995;-31.998;115.906;2023-12-28T07:40:34;30.80;99.90
5940;DHT22;2995;-31.998;115.906;2023-12-28T07:43:06;30.60;99.90
5940;DHT22;2995;-31.998;115.906;2023-12-28T07:45:39;30.50;99.90
5940;DHT22;2995;-31.998;115.906;2023-12-28T07:48:10;30.50;99.90
5940;DHT22;2995;-31.998;115.906;2023-12-28T07:50:41;30.40;99.90
5940;DHT22;2995;-31.998;115.906;2023-12-28T07:53:12;30.40;99.90
5940;DHT22;2995;-31.998;115.906;2023-12-28T07:55:44;30.30;99.90
5940;DHT22;2995;-31.998;115.906;2023-12-28T07:58:15;30.40;99.90
5940;DHT22;2995;-31.998;115.906;2023-12-28T08:00:48;30.50;99.90
5940;DHT22;2995;-31.998;115.906;2023-12-28T08:03:19;30.60;99.90
5940;DHT22;2995;-31.998;115.906;2023-12-28T08:05:51;30.60;99.90
5940;DHT22;2995;-31.998;115.906;2023-12-28T08:08:22;30.60;99.90
5940;DHT22;2995;-31.998;115.906;2023-12-28T08:10:53;30.60;99.90
5940;DHT22;2995;-31.998;115.906;2023-12-28T08:13:24;30.60;99.90
5940;DHT22;2995;-31.998;115.906;2023-12-28T08:15:57;30.60;99.90
5940;DHT22;2995;-31.998;115.906;2023-12-28T08:18:28;30.40;99.90
5940;DHT22;2995;-31.998;115.906;2023-12-28T08:21:00;30.40;99.90
5940;DHT22;2995;-31.998;115.906;2023-12-28T08:23:31;30.50;99.90
5940;DHT22;2995;-31.998;115.906;2023-12-28T08:26:02;30.70;99.90
5940;DHT22;2995;-31.998;115.906;2023-12-28T08:28:35;30.80;99.90
5940;DHT22;2995;-31.998;115.906;2023-12-28T08:31:08;30.80;99.90
5940;DHT22;2995;-31.998;115.906;2023-12-28T08:33:40;30.80;99.90
5940;DHT22;2995;-31.998;115.906;2023-12-28T08:36:11;30.70;99.90
5940;DHT22;2995;-31.998;115.906;2023-12-28T08:38:44;30.60;99.90
5940;DHT22;2995;-31.998;115.906;2023-12-28T08:41:21;30.50;99.90
5940;DHT22;2995;-31.998;115.906;2023-12-28T08:43:53;30.70;99.90
5940;DHT22;2995;-31.998;115.906;2023-12-28T08:46:26;30.80;99.90
5940;DHT22;2995;-31.998;115.906;2023-12-28T08:48:57;30.90;99.90
5940;DHT22;2995;-31.998;115.906;2023-12-28T08:51:28;30.80;99.90
5940;DHT22;2995;-31.998;115.906;2023-12-28T08:54:00;30.70;99.90
5940;DHT22;2995;-31.998;115.906;2023-12-28T08:56:32;30.70;99.90
5940;DHT22;2995;-31.998;115.906;2023-12-28T08:59:03;30.60;99.90
5940;DHT22;2995;-31.998;115.906;2023-12-28T09:01:36;30.60;99.90
5940;DHT22;2995;-31.998;115.906;2023-12-28T09:04:07;30.50;99.60
5940;DHT22;2995;-31.998;115.906;2023-12-28T09:06:39;30.60;99.70
5940;DHT22;2995;-31.998;115.906;2023-12-28T09:09:10;30.70;99.90
5940;DHT22;2995;-31.998;115.906;2023-12-28T09:11:42;30.90;99.50
5940;DHT22;2995;-31.998;115.906;2023-12-28T09:14:13;30.80;99.40
5940;DHT22;2995;-31.998;115.906;2023-12-28T09:16:47;30.90;99.20
5940;DHT22;2995;-31.998;115.906;2023-12-28T09:19:18;31.00;99.10
5940;DHT22;2995;-31.998;115.906;2023-12-28T09:21:49;31.00;99.10
5940;DHT22;2995;-31.998;115.906;2023-12-28T09:24:20;31.00;98.70
5940;DHT22;2995;-31.998;115.906;2023-12-28T09:26:51;31.00;98.90
5940;DHT22;2995;-31.998;115.906;2023-12-28T09:29:23;31.00;98.80
5940;DHT22;2995;-31.998;115.906;2023-12-28T09:31:56;31.10;99.20
5940;DHT22;2995;-31.998;115.906;2023-12-28T09:34:27;30.90;98.90
5940;DHT22;2995;-31.998;115.906;2023-12-28T09:36:58;30.90;99.10
5940;DHT22;2995;-31.998;115.906;2023-12-28T09:39:30;31.00;99.50
5940;DHT22;2995;-31.998;115.906;2023-12-28T09:42:04;31.10;99.40
5940;DHT22;2995;-31.998;115.906;2023-12-28T09:44:38;31.10;99.00
5940;DHT22;2995;-31.998;115.906;2023-12-28T09:47:11;31.10;99.10
5940;DHT22;2995;-31.998;115.906;2023-12-28T09:49:44;31.10;99.20
5940;DHT22;2995;-31.998;115.906;2023-12-28T09:52:16;30.90;98.10
5940;DHT22;2995;-31.998;115.906;2023-12-28T09:54:48;30.80;98.50
5940;DHT22;2995;-31.998;115.906;2023-12-28T09:57:20;30.80;98.80
5940;DHT22;2995;-31.998;115.906;2023-12-28T09:59:51;30.80;98.20
5940;DHT22;2995;-31.998;115.906;2023-12-28T10:02:25;30.70;97.80
5940;DHT22;2995;-31.998;115.906;2023-12-28T10:04:56;30.50;98.00
5940;DHT22;2995;-31.998;115.906;2023-12-28T10:07:28;30.40;97.70
5940;DHT22;2995;-31.998;115.906;2023-12-28T10:09:59;30.30;97.80
5940;DHT22;2995;-31.998;115.906;2023-12-28T10:12:33;30.30;98.10
5940;DHT22;2995;-31.998;115.906;2023-12-28T10:15:05;30.30;97.70
5940;DHT22;2995;-31.998;115.906;2023-12-28T10:17:38;30.10;97.70
5940;DHT22;2995;-31.998;115.906;2023-12-28T10:20:10;30.00;97.80
5940;DHT22;2995;-31.998;115.906;2023-12-28T10:22:41;30.10;98.00
5940;DHT22;2995;-31.998;115.906;2023-12-28T10:25:13;30.00;98.20
5940;DHT22;2995;-31.998;115.906;2023-12-28T10:27:44;29.80;98.10
5940;DHT22;2995;-31.998;115.906;2023-12-28T10:30:15;29.70;98.30
5940;DHT22;2995;-31.998;115.906;2023-12-28T10:32:48;29.70;98.50
5940;DHT22;2995;-31.998;115.906;2023-12-28T10:35:20;29.50;98.40
5940;DHT22;2995;-31.998;115.906;2023-12-28T10:37:53;29.50;98.20
5940;DHT22;2995;-31.998;115.906;2023-12-28T10:40:25;29.40;98.20
5940;DHT22;2995;-31.998;115.906;2023-12-28T10:42:58;29.40;98.30
5940;DHT22;2995;-31.998;115.906;2023-12-28T10:45:33;29.30;98.60
5940;DHT22;2995;-31.998;115.906;2023-12-28T10:48:09;29.20;98.40
5940;DHT22;2995;-31.998;115.906;2023-12-28T10:50:42;29.10;98.50
5940;DHT22;2995;-31.998;115.906;2023-12-28T10:53:26;29.10;98.80
5940;DHT22;2995;-31.998;115.906;2023-12-28T10:56:14;29.00;98.70
5940;DHT22;2995;-31.998;115.906;2023-12-28T10:58:49;29.00;98.60
5940;DHT22;2995;-31.998;115.906;2023-12-28T11:01:24;28.90;98.50
5940;DHT22;2995;-31.998;115.906;2023-12-28T11:04:13;28.80;98.90
5940;DHT22;2995;-31.998;115.906;2023-12-28T11:06:48;28.80;98.90
5940;DHT22;2995;-31.998;115.906;2023-12-28T11:09:22;28.80;98.90
5940;DHT22;2995;-31.998;115.906;2023-12-28T11:11:56;28.70;98.80
5940;DHT22;2995;-31.998;115.906;2023-12-28T11:14:29;28.60;98.80
5940;DHT22;2995;-31.998;115.906;2023-12-28T11:17:02;28.40;99.20
5940;DHT22;2995;-31.998;115.906;2023-12-28T11:19:36;28.30;99.00
5940;DHT22;2995;-31.998;115.906;2023-12-28T11:22:08;28.10;99.40
5940;DHT22;2995;-31.998;115.906;2023-12-28T11:24:40;28.20;99.80
5940;DHT22;2995;-31.998;115.906;2023-12-28T11:27:11;28.10;99.90
5940;DHT22;2995;-31.998;115.906;2023-12-28T11:29:43;28.00;99.90
5940;DHT22;2995;-31.998;115.906;2023-12-28T11:32:15;27.80;99.90
5940;DHT22;2995;-31.998;115.906;2023-12-28T11:34:57;27.60;99.90
5940;DHT22;2995;-31.998;115.906;2023-12-28T11:37:31;27.60;99.90
5940;DHT22;2995;-31.998;115.906;2023-12-28T11:40:12;27.40;99.90
5940;DHT22;2995;-31.998;115.906;2023-12-28T11:42:51;27.50;99.90
5940;DHT22;2995;-31.998;115.906;2023-12-28T11:45:24;27.40;99.90
5940;DHT22;2995;-31.998;115.906;2023-12-28T11:48:01;27.30;99.90
5940;DHT22;2995;-31.998;115.906;2023-12-28T11:50:35;27.40;99.90
5940;DHT22;2995;-31.998;115.906;2023-12-28T11:53:07;27.30;99.90
5940;DHT22;2995;-31.998;115.906;2023-12-28T11:55:39;27.10;99.90
5940;DHT22;2995;-31.998;115.906;2023-12-28T11:58:10;27.10;99.90
5940;DHT22;2995;-31.998;115.906;2023-12-28T12:00:41;27.10;99.90
5940;DHT22;2995;-31.998;115.906;2023-12-28T12:03:13;27.00;99.90
5940;DHT22;2995;-31.998;115.906;2023-12-28T12:05:46;26.80;99.90
5940;DHT22;2995;-31.998;115.906;2023-12-28T12:08:17;26.80;99.90
5940;DHT22;2995;-31.998;115.906;2023-12-28T12:10:58;26.70;99.90
5940;DHT22;2995;-31.998;115.906;2023-12-28T12:13:32;26.50;99.90
5940;DHT22;2995;-31.998;115.906;2023-12-28T12:16:04;26.40;99.90
5940;DHT22;2995;-31.998;115.906;2023-12-28T12:18:35;26.40;99.90
5940;DHT22;2995;-31.998;115.906;2023-12-28T12:21:09;26.20;99.90
5940;DHT22;2995;-31.998;115.906;2023-12-28T12:23:40;25.90;99.90
5940;DHT22;2995;-31.998;115.906;2023-12-28T12:26:11;25.80;99.90
5940;DHT22;2995;-31.998;115.906;2023-12-28T12:28:43;25.70;99.90
5940;DHT22;2995;-31.998;115.906;2023-12-28T12:31:15;25.70;99.90
5940;DHT22;2995;-31.998;115.906;2023-12-28T12:33:47;25.70;99.90
5940;DHT22;2995;-31.998;115.906;2023-12-28T12:36:23;25.50;99.90
5940;DHT22;2995;-31.998;115.906;2023-12-28T12:38:54;25.40;99.90
5940;DHT22;2995;-31.998;115.906;2023-12-28T12:41:26;25.30;99.90
5940;DHT22;2995;-31.998;115.906;2023-12-28T12:43:58;25.40;99.90
5940;DHT22;2995;-31.998;115.906;2023-12-28T12:46:30;25.20;99.90
5940;DHT22;2995;-31.998;115.906;2023-12-28T12:49:02;25.10;99.90
5940;DHT22;2995;-31.998;115.906;2023-12-28T12:51:35;25.00;99.90
5940;DHT22;2995;-31.998;115.906;2023-12-28T12:54:07;25.00;99.90
5940;DHT22;2995;-31.998;115.906;2023-12-28T12:56:39;24.80;99.90
5940;DHT22;2995;-31.998;115.906;2023-12-28T12:59:13;24.60;99.90
5940;DHT22;2995;-31.998;115.906;2023-12-28T13:01:45;24.60;99.90
5940;DHT22;2995;-31.998;115.906;2023-12-28T13:04:20;24.60;99.90
5940;DHT22;2995;-31.998;115.906;2023-12-28T13:06:53;24.50;99.90
5940;DHT22;2995;-31.998;115.906;2023-12-28T13:09:24;24.30;99.90
5940;DHT22;2995;-31.998;115.906;2023-12-28T13:11:56;24.30;99.90
5940;DHT22;2995;-31.998;115.906;2023-12-28T13:14:27;24.20;99.90
5940;DHT22;2995;-31.998;115.906;2023-12-28T13:16:59;24.20;99.90
5940;DHT22;2995;-31.998;115.906;2023-12-28T13:19:30;24.10;99.90
5940;DHT22;2995;-31.998;115.906;2023-12-28T13:22:04;23.90;99.90
5940;DHT22;2995;-31.998;115.906;2023-12-28T13:24:35;23.90;99.90
5940;DHT22;2995;-31.998;115.906;2023-12-28T13:27:07;23.80;99.90
5940;DHT22;2995;-31.998;115.906;2023-12-28T13:29:38;23.70;99.90
5940;DHT22;2995;-31.998;115.906;2023-12-28T13:32:09;23.60;99.90
5940;DHT22;2995;-31.998;115.906;2023-12-28T13:34:41;23.70;99.90
5940;DHT22;2995;-31.998;115.906;2023-12-28T13:37:14;23.60;99.90
5940;DHT22;2995;-31.998;115.906;2023-12-28T13:39:45;23.50;99.90
5940;DHT22;2995;-31.998;115.906;2023-12-28T13:42:16;23.30;99.90
5940;DHT22;2995;-31.998;115.906;2023-12-28T13:44:47;23.20;99.90
5940;DHT22;2995;-31.998;115.906;2023-12-28T13:47:19;23.20;99.90
5940;DHT22;2995;-31.998;115.906;2023-12-28T13:49:50;23.10;99.90
5940;DHT22;2995;-31.998;115.906;2023-12-28T13:52:23;23.10;99.90
5940;DHT22;2995;-31.998;115.906;2023-12-28T13:54:55;22.90;99.90
5940;DHT22;2995;-31.998;115.906;2023-12-28T13:57:27;23.00;99.90
5940;DHT22;2995;-31.998;115.906;2023-12-28T13:59:58;23.00;99.90
5940;DHT22;2995;-31.998;115.906;2023-12-28T14:02:29;22.90;99.90
5940;DHT22;2995;-31.998;115.906;2023-12-28T14:05:01;22.80;99.90
5940;DHT22;2995;-31.998;115.906;2023-12-28T14:07:34;22.70;99.90
5940;DHT22;2995;-31.998;115.906;2023-12-28T14:10:06;22.80;99.90
5940;DHT22;2995;-31.998;115.906;2023-12-28T14:12:37;22.60;99.90
5940;DHT22;2995;-31.998;115.906;2023-12-28T14:15:09;22.70;99.90
5940;DHT22;2995;-31.998;115.906;2023-12-28T14:17:43;22.80;99.90
5940;DHT22;2995;-31.998;115.906;2023-12-28T14:20:14;22.70;99.90
5940;DHT22;2995;-31.998;115.906;2023-12-28T14:22:48;22.50;99.90
5940;DHT22;2995;-31.998;115.906;2023-12-28T14:25:19;22.40;99.90
5940;DHT22;2995;-31.998;115.906;2023-12-28T14:27:51;22.40;99.90
5940;DHT22;2995;-31.998;115.906;2023-12-28T14:30:23;22.40;99.90
5940;DHT22;2995;-31.998;115.906;2023-12-28T14:32:55;22.40;99.90
5940;DHT22;2995;-31.998;115.906;2023-12-28T14:35:26;22.50;99.90
5940;DHT22;2995;-31.998;115.906;2023-12-28T14:38:00;22.20;99.90
5940;DHT22;2995;-31.998;115.906;2023-12-28T14:40:31;22.20;99.90
5940;DHT22;2995;-31.998;115.906;2023-12-28T14:43:03;22.10;99.90
5940;DHT22;2995;-31.998;115.906;2023-12-28T14:45:34;22.20;99.90
5940;DHT22;2995;-31.998;115.906;2023-12-28T14:48:05;22.00;99.90
5940;DHT22;2995;-31.998;115.906;2023-12-28T14:50:37;22.00;99.90
5940;DHT22;2995;-31.998;115.906;2023-12-28T14:53:10;21.90;99.90
5940;DHT22;2995;-31.998;115.906;2023-12-28T14:55:41;21.90;99.90
5940;DHT22;2995;-31.998;115.906;2023-12-28T14:58:12;21.90;99.90
5940;DHT22;2995;-31.998;115.906;2023-12-28T15:00:45;21.90;99.90
5940;DHT22;2995;-31.998;115.906;2023-12-28T15:03:16;21.80;99.90
5940;DHT22;2995;-31.998;115.906;2023-12-28T15:05:47;21.80;99.90
5940;DHT22;2995;-31.998;115.906;2023-12-28T15:08:21;21.70;99.90
5940;DHT22;2995;-31.998;115.906;2023-12-28T15:10:53;21.70;99.90
5940;DHT22;2995;-31.998;115.906;2023-12-28T15:13:24;21.70;99.90
5940;DHT22;2995;-31.998;115.906;2023-12-28T15:15:56;21.60;99.90
5940;DHT22;2995;-31.998;115.906;2023-12-28T15:18:30;21.50;99.90
5940;DHT22;2995;-31.998;115.906;2023-12-28T15:21:02;21.50;99.90
5940;DHT22;2995;-31.998;115.906;2023-12-28T15:23:36;21.40;99.90
5940;DHT22;2995;-31.998;115.906;2023-12-28T15:26:08;21.40;99.90
5940;DHT22;2995;-31.998;115.906;2023-12-28T15:28:39;21.40;99.90
5940;DHT22;2995;-31.998;115.906;2023-12-28T15:31:10;21.40;99.90
5940;DHT22;2995;-31.998;115.906;2023-12-28T15:33:42;21.30;99.90
5940;DHT22;2995;-31.998;115.906;2023-12-28T15:36:13;21.30;99.90
5940;DHT22;2995;-31.998;115.906;2023-12-28T15:38:46;21.20;99.90
5940;DHT22;2995;-31.998;115.906;2023-12-28T15:41:17;21.10;99.90
5940;DHT22;2995;-31.998;115.906;2023-12-28T15:43:49;21.10;99.90
5940;DHT22;2995;-31.998;115.906;2023-12-28T15:46:20;21.10;99.90